Time;durP1;ratioP1;P1;durP2;ratioP2;P2;SDS_P1;SDS_P2;PMS_P1;PMS_P2;Temp;Humidity;BMP_temperature;BMP_pressure;BME280_temperature;BME280_humidity;BME280_pressure;Samples;Min_cycle;Max_cycle;Signal;HPM_P1;HPM_P2
2023/09/04 06:22:34;;;;;;;10.50;3.30;;;;;;;;;;6160969;23;20333;-71
2023/09/04 06:25:00;;;;;;;7.55;4.20;;;;;;;;;;6182105;23;20076;-70
2023/09/04 06:27:26;;;;;;;18.83;4.10;;;;;;;;;;6182900;23;20068;-71
2023/09/04 06:29:52;;;;;;;13.00;4.28;;;;;;;;;;6182256;23;20131;-70
2023/09/04 06:32:19;;;;;;;6.97;3.63;;;;;;;;;;6183025;23;20091;-71
2023/09/04 06:34:45;;;;;;;9.75;3.60;;;;;;;;;;6182294;23;20085;-71
2023/09/04 06:37:12;;;;;;;8.80;3.72;;;;;;;;;;6157402;23;20088;-72
2023/09/04 06:39:38;;;;;;;7.78;3.65;;;;;;;;;;6184009;23;20080;-71
2023/09/04 06:42:05;;;;;;;6.28;3.88;;;;;;;;;;6154930;23;20088;-70
2023/09/04 06:44:32;;;;;;;5.75;3.42;;;;;;;;;;6184930;23;20052;-71
2023/09/04 06:46:59;;;;;;;5.25;3.47;;;;;;;;;;6184137;23;20080;-71
2023/09/04 06:49:25;;;;;;;5.68;3.70;;;;;;;;;;6185414;23;20391;-71
2023/09/04 06:51:51;;;;;;;6.07;3.95;;;;;;;;;;6157926;23;20528;-71
2023/09/04 06:54:17;;;;;;;6.63;3.50;;;;;;;;;;6153459;23;20095;-71
2023/09/04 06:56:44;;;;;;;9.75;3.75;;;;;;;;;;6180578;23;20131;-70
2023/09/04 06:59:10;;;;;;;8.15;3.90;;;;;;;;;;6185076;23;20064;-71
2023/09/04 07:01:36;;;;;;;7.13;4.13;;;;;;;;;;6184620;23;20080;-71
2023/09/04 07:04:03;;;;;;;6.03;4.00;;;;;;;;;;6184794;23;20510;-70
2023/09/04 07:06:29;;;;;;;9.20;4.28;;;;;;;;;;6184196;23;20064;-70
2023/09/04 07:08:55;;;;;;;10.82;3.80;;;;;;;;;;6183790;23;20076;-70
2023/09/04 07:11:22;;;;;;;6.72;3.72;;;;;;;;;;6184866;23;20080;-70
2023/09/04 07:13:48;;;;;;;11.00;3.92;;;;;;;;;;6158520;23;20093;-70
2023/09/04 07:16:14;;;;;;;8.20;4.22;;;;;;;;;;6183974;23;20068;-70
2023/09/04 07:18:41;;;;;;;10.25;3.90;;;;;;;;;;6184516;23;20080;-70
2023/09/04 07:21:07;;;;;;;6.10;3.88;;;;;;;;;;6184765;23;20081;-68
2023/09/04 07:23:33;;;;;;;9.40;3.80;;;;;;;;;;6184224;23;20527;-69
2023/09/04 07:26:01;;;;;;;8.27;3.95;;;;;;;;;;6184301;23;20058;-69
2023/09/04 07:28:27;;;;;;;8.10;3.88;;;;;;;;;;6184570;23;20068;-69
2023/09/04 07:31:07;;;;;;;5.53;4.00;;;;;;;;;;6180614;23;20346;-68
2023/09/04 07:33:34;;;;;;;12.50;4.60;;;;;;;;;;6184774;23;20084;-70
2023/09/04 07:36:00;;;;;;;9.05;4.93;;;;;;;;;;6184125;23;20551;-69
2023/09/04 07:38:26;;;;;;;7.28;3.75;;;;;;;;;;6183996;23;20076;-68
2023/09/04 07:41:03;;;;;;;7.47;4.47;;;;;;;;;;6184808;23;20072;-68
2023/09/04 07:43:32;;;;;;;6.60;4.50;;;;;;;;;;6184602;23;20080;-68
2023/09/04 07:46:00;;;;;;;8.27;4.55;;;;;;;;;;6156362;23;20112;-68
2023/09/04 07:48:26;;;;;;;5.88;3.53;;;;;;;;;;6184232;23;20076;-68
2023/09/04 07:50:53;;;;;;;7.38;4.60;;;;;;;;;;6184095;23;20071;-68
2023/09/04 07:53:19;;;;;;;9.73;4.13;;;;;;;;;;6183635;23;20091;-68
2023/09/04 07:55:46;;;;;;;9.55;4.07;;;;;;;;;;6183806;23;20093;-68
2023/09/04 07:58:12;;;;;;;5.32;3.78;;;;;;;;;;6184309;23;20510;-68
2023/09/04 08:01:05;;;;;;;9.30;3.92;;;;;;;;;;6184608;23;20068;-68
2023/09/04 08:03:31;;;;;;;8.30;3.58;;;;;;;;;;6175013;23;20096;-70
2023/09/04 08:05:57;;;;;;;5.05;3.58;;;;;;;;;;6182908;23;20080;-69
2023/09/04 08:08:24;;;;;;;5.78;3.67;;;;;;;;;;6183512;23;20068;-70
2023/09/04 08:10:51;;;;;;;4.85;3.40;;;;;;;;;;6184345;23;20403;-70
2023/09/04 08:13:18;;;;;;;5.75;3.65;;;;;;;;;;6183529;23;20084;-70
2023/09/04 08:15:45;;;;;;;9.68;3.80;;;;;;;;;;6183720;23;20060;-70
2023/09/04 08:18:11;;;;;;;5.10;3.33;;;;;;;;;;6184165;23;20076;-69
2023/09/04 08:20:39;;;;;;;11.00;3.50;;;;;;;;;;6183697;23;20588;-70
2023/09/04 08:23:11;;;;;;;7.00;3.13;;;;;;;;;;6183219;23;20088;-75
2023/09/04 08:25:37;;;;;;;5.60;3.38;;;;;;;;;;6183386;23;20137;-71
2023/09/04 08:28:04;;;;;;;7.32;3.08;;;;;;;;;;6184291;23;20087;-73
2023/09/04 08:30:31;;;;;;;3.13;2.75;;;;;;;;;;6184019;23;20064;-70
2023/09/04 08:32:57;;;;;;;6.38;2.90;;;;;;;;;;6183595;23;20499;-70
2023/09/04 08:35:29;;;;;;;4.60;3.05;;;;;;;;;;6156825;23;20064;-70
2023/09/04 08:37:56;;;;;;;5.60;3.17;;;;;;;;;;6183966;23;20072;-70
2023/09/04 08:40:23;;;;;;;5.78;2.72;;;;;;;;;;6183776;23;20452;-71
2023/09/04 08:42:52;;;;;;;4.28;2.83;;;;;;;;;;6183455;23;20185;-70
2023/09/04 08:45:19;;;;;;;4.57;2.97;;;;;;;;;;6183559;23;20075;-70
2023/09/04 08:47:46;;;;;;;13.50;2.83;;;;;;;;;;6182120;23;20383;-70
2023/09/04 08:50:12;;;;;;;11.65;3.63;;;;;;;;;;6183092;23;20068;-70
2023/09/04 08:52:39;;;;;;;4.68;2.80;;;;;;;;;;6184142;23;20080;-70
2023/09/04 08:55:05;;;;;;;8.55;3.05;;;;;;;;;;6183781;23;20518;-71
2023/09/04 08:57:33;;;;;;;8.00;3.42;;;;;;;;;;6157503;23;20532;-70
2023/09/04 08:59:59;;;;;;;4.75;2.90;;;;;;;;;;6183234;23;20515;-70
2023/09/04 09:02:26;;;;;;;4.68;2.50;;;;;;;;;;6183138;23;20088;-70
2023/09/04 09:04:52;;;;;;;4.30;2.70;;;;;;;;;;6183224;23;20072;-70
2023/09/04 09:07:19;;;;;;;9.60;3.20;;;;;;;;;;6183714;23;20076;-70
2023/09/04 09:09:48;;;;;;;4.95;2.55;;;;;;;;;;6156852;23;20080;-70
2023/09/04 09:12:14;;;;;;;14.20;2.50;;;;;;;;;;6183476;23;20068;-70
2023/09/04 09:14:40;;;;;;;3.75;1.73;;;;;;;;;;6183617;23;20085;-71
2023/09/04 09:17:08;;;;;;;6.07;2.15;;;;;;;;;;6183102;23;20518;-72
2023/09/04 09:19:37;;;;;;;1.92;1.70;;;;;;;;;;6182675;23;20088;-72
2023/09/04 09:22:11;;;;;;;1.80;1.50;;;;;;;;;;6183484;23;20100;-72
2023/09/04 09:24:52;;;;;;;1.83;1.65;;;;;;;;;;6156658;23;20093;-72
2023/09/04 09:27:23;;;;;;;4.63;1.70;;;;;;;;;;6182506;23;20451;-71
2023/09/04 09:29:49;;;;;;;3.70;1.50;;;;;;;;;;6182888;23;20098;-72
2023/09/04 09:32:17;;;;;;;4.80;1.70;;;;;;;;;;6159428;23;20071;-72
2023/09/04 09:34:50;;;;;;;14.60;2.28;;;;;;;;;;6184850;23;20076;-71
2023/09/04 09:37:17;;;;;;;2.72;1.58;;;;;;;;;;6185660;23;20143;-72
2023/09/04 09:39:43;;;;;;;2.13;1.48;;;;;;;;;;6184939;23;20112;-71
2023/09/04 09:42:10;;;;;;;1.67;1.50;;;;;;;;;;6184969;23;20088;-72
2023/09/04 09:44:36;;;;;;;2.45;1.67;;;;;;;;;;6185310;23;20084;-71
2023/09/04 09:47:03;;;;;;;1.90;1.50;;;;;;;;;;6185420;23;20085;-72
2023/09/04 09:49:30;;;;;;;1.63;1.50;;;;;;;;;;6185317;23;20068;-71
2023/09/04 09:51:57;;;;;;;1.65;1.55;;;;;;;;;;6185366;23;20139;-72
2023/09/04 09:54:40;;;;;;;1.67;1.58;;;;;;;;;;6185482;23;20448;-72
2023/09/04 09:57:16;;;;;;;2.65;1.58;;;;;;;;;;6183614;23;20500;-72
2023/09/04 09:59:44;;;;;;;1.75;1.65;;;;;;;;;;6184227;23;20080;-72
2023/09/04 10:02:15;;;;;;;2.00;1.65;;;;;;;;;;6184151;23;20019;-72
2023/09/04 10:04:42;;;;;;;1.60;1.50;;;;;;;;;;6185181;23;20068;-72
2023/09/04 10:07:09;;;;;;;1.80;1.70;;;;;;;;;;6184551;23;20084;-72
2023/09/04 10:09:38;;;;;;;3.30;1.60;;;;;;;;;;6185125;23;20143;-72
2023/09/04 10:12:19;;;;;;;4.25;1.50;;;;;;;;;;6185060;23;20099;-72
2023/09/04 10:14:46;;;;;;;3.17;1.30;;;;;;;;;;6184338;23;20522;-72
2023/09/04 10:17:18;;;;;;;1.55;1.30;;;;;;;;;;6183775;23;20111;-72
2023/09/04 10:19:47;;;;;;;2.05;1.20;;;;;;;;;;6184378;23;20535;-72
2023/09/04 10:22:21;;;;;;;1.70;1.30;;;;;;;;;;6184445;23;20095;-72
2023/09/04 10:24:55;;;;;;;2.00;1.30;;;;;;;;;;6185110;23;20085;-72
2023/09/04 10:27:23;;;;;;;3.42;1.42;;;;;;;;;;6184614;23;20191;-71
2023/09/04 10:30:06;;;;;;;3.20;1.30;;;;;;;;;;6185244;23;20068;-70
2023/09/04 10:32:33;;;;;;;1.58;1.20;;;;;;;;;;6183934;23;20096;-72
2023/09/04 10:35:01;;;;;;;6.20;1.38;;;;;;;;;;6184806;23;20049;-72
2023/09/04 10:37:29;;;;;;;1.83;1.30;;;;;;;;;;6184058;23;20083;-72
2023/09/04 10:39:56;;;;;;;2.05;1.45;;;;;;;;;;6184328;23;20088;-72
2023/09/04 10:42:23;;;;;;;3.42;1.52;;;;;;;;;;6184004;23;20075;-71
2023/09/04 10:44:51;;;;;;;1.92;1.35;;;;;;;;;;6184786;23;20381;-71
2023/09/04 10:47:18;;;;;;;1.88;1.40;;;;;;;;;;6184167;23;20091;-70
2023/09/04 10:49:45;;;;;;;3.90;1.60;;;;;;;;;;6184454;23;20064;-72
2023/09/04 10:52:12;;;;;;;1.33;1.20;;;;;;;;;;6183954;23;20092;-71
2023/09/04 10:54:39;;;;;;;2.45;1.70;;;;;;;;;;6184651;23;20494;-72
2023/09/04 10:57:07;;;;;;;4.32;1.67;;;;;;;;;;6158338;23;20083;-71
2023/09/04 10:59:52;;;;;;;2.03;1.35;;;;;;;;;;6183674;23;20084;-72
2023/09/04 11:02:29;;;;;;;2.67;1.50;;;;;;;;;;6183570;23;20080;-72
2023/09/04 11:04:55;;;;;;;4.95;1.40;;;;;;;;;;6184458;23;20071;-71
2023/09/04 11:07:23;;;;;;;2.90;1.65;;;;;;;;;;6184544;23;20072;-72
2023/09/04 11:09:53;;;;;;;2.97;1.50;;;;;;;;;;6184507;23;20480;-71
2023/09/04 11:12:20;;;;;;;2.50;1.67;;;;;;;;;;6184513;23;20095;-72
2023/09/04 11:14:48;;;;;;;3.17;1.63;;;;;;;;;;6184481;23;20108;-71
2023/09/04 11:17:17;;;;;;;2.60;1.77;;;;;;;;;;6184598;23;20071;-71
2023/09/04 11:19:45;;;;;;;2.00;1.67;;;;;;;;;;6184539;23;20076;-72
2023/09/04 11:22:21;;;;;;;2.58;1.77;;;;;;;;;;6184362;23;20080;-71
2023/09/04 11:24:49;;;;;;;1.70;1.60;;;;;;;;;;6184808;23;20080;-72
2023/09/04 11:27:15;;;;;;;2.85;1.40;;;;;;;;;;6184227;23;20080;-72
2023/09/04 11:29:43;;;;;;;2.72;1.60;;;;;;;;;;6184160;23;20076;-72
2023/09/04 11:32:09;;;;;;;5.53;1.83;;;;;;;;;;6184825;23;20084;-72
2023/09/04 11:34:35;;;;;;;2.67;1.98;;;;;;;;;;6184222;23;20076;-72
2023/09/04 11:37:02;;;;;;;2.55;1.55;;;;;;;;;;6184217;23;20136;-72
2023/09/04 11:39:28;;;;;;;3.60;1.40;;;;;;;;;;6184487;23;20064;-71
2023/09/04 11:41:54;;;;;;;2.70;1.52;;;;;;;;;;6184284;23;20080;-71
2023/09/04 11:44:21;;;;;;;2.15;1.85;;;;;;;;;;6183058;23;20393;-72
2023/09/04 11:46:48;;;;;;;1.83;1.45;;;;;;;;;;6180451;23;20088;-68
2023/09/04 11:49:15;;;;;;;3.90;1.60;;;;;;;;;;6183552;23;20080;-72
2023/09/04 11:51:44;;;;;;;4.55;1.80;;;;;;;;;;6183910;23;20083;-72
2023/09/04 11:54:11;;;;;;;4.28;1.70;;;;;;;;;;6183514;23;20068;-72
2023/09/04 11:56:37;;;;;;;4.93;1.65;;;;;;;;;;6182889;23;20080;-72
2023/09/04 11:59:04;;;;;;;2.85;1.48;;;;;;;;;;6183376;23;20478;-72
2023/09/04 12:01:30;;;;;;;5.45;1.65;;;;;;;;;;6183024;23;20186;-72
2023/09/04 12:03:57;;;;;;;2.17;1.63;;;;;;;;;;6181290;23;20076;-72
2023/09/04 12:06:28;;;;;;;2.72;1.70;;;;;;;;;;6157755;23;20087;-72
2023/09/04 12:08:54;;;;;;;4.28;1.90;;;;;;;;;;6183940;23;20498;-71
2023/09/04 12:11:21;;;;;;;5.38;1.98;;;;;;;;;;6157339;23;20080;-72
2023/09/04 12:13:48;;;;;;;1.75;1.65;;;;;;;;;;6183354;23;20107;-72
2023/09/04 12:16:16;;;;;;;2.15;1.30;;;;;;;;;;6183847;23;20076;-72
2023/09/04 12:18:43;;;;;;;2.45;1.80;;;;;;;;;;6183749;23;20068;-71
2023/09/04 12:21:10;;;;;;;4.30;1.63;;;;;;;;;;6157070;23;20391;-72
2023/09/04 12:23:46;;;;;;;1.75;1.58;;;;;;;;;;6183289;23;20396;-72
2023/09/04 12:26:13;;;;;;;3.25;1.85;;;;;;;;;;6183822;23;20518;-72
2023/09/04 12:28:40;;;;;;;1.60;1.50;;;;;;;;;;6183290;23;20072;-72
2023/09/04 12:31:08;;;;;;;4.35;1.70;;;;;;;;;;6182929;23;20513;-72
2023/09/04 12:33:38;;;;;;;5.30;1.98;;;;;;;;;;6182576;23;20080;-72
2023/09/04 12:36:06;;;;;;;2.00;1.80;;;;;;;;;;6156954;23;20120;-72
2023/09/04 12:38:32;;;;;;;1.92;1.70;;;;;;;;;;6182659;23;20096;-72
2023/09/04 12:40:58;;;;;;;1.98;1.88;;;;;;;;;;6182543;23;20084;-72
2023/09/04 12:43:25;;;;;;;2.45;1.80;;;;;;;;;;6182293;23;20068;-72
2023/09/04 12:45:51;;;;;;;1.98;1.77;;;;;;;;;;6182633;23;20515;-72
2023/09/04 12:48:17;;;;;;;2.40;1.83;;;;;;;;;;6182894;23;20068;-72
2023/09/04 12:50:44;;;;;;;2.03;1.83;;;;;;;;;;6182851;23;20088;-72
2023/09/04 12:53:11;;;;;;;4.10;1.90;;;;;;;;;;6156506;23;20100;-71
2023/09/04 12:55:37;;;;;;;2.17;1.95;;;;;;;;;;6183174;23;20072;-71
2023/09/04 12:58:08;;;;;;;4.28;1.92;;;;;;;;;;6182839;23;20072;-71
2023/09/04 13:00:35;;;;;;;1.98;1.63;;;;;;;;;;6183253;23;20080;-71
2023/09/04 13:03:01;;;;;;;2.28;1.70;;;;;;;;;;6182857;23;20072;-72
2023/09/04 13:05:28;;;;;;;4.28;1.70;;;;;;;;;;6156627;23;20128;-71
2023/09/04 13:07:54;;;;;;;2.85;1.85;;;;;;;;;;6182946;23;20447;-72
2023/09/04 13:10:21;;;;;;;3.17;2.03;;;;;;;;;;6180814;23;20079;-71
2023/09/04 13:12:47;;;;;;;5.78;1.90;;;;;;;;;;6183433;23;20017;-71
2023/09/04 13:15:14;;;;;;;3.92;1.95;;;;;;;;;;6182447;23;20076;-71
2023/09/04 13:17:44;;;;;;;1.90;1.70;;;;;;;;;;6182640;23;20068;-71
2023/09/04 13:20:11;;;;;;;3.03;1.80;;;;;;;;;;6182574;23;20088;-72
2023/09/04 13:22:38;;;;;;;2.70;1.85;;;;;;;;;;6182160;23;20542;-72
2023/09/04 13:25:04;;;;;;;1.70;1.60;;;;;;;;;;6154724;23;20447;-71
2023/09/04 13:27:31;;;;;;;1.60;1.50;;;;;;;;;;6183138;23;20087;-72
2023/09/04 13:29:57;;;;;;;4.00;1.73;;;;;;;;;;6183376;23;20091;-72
2023/09/04 13:32:23;;;;;;;2.45;1.60;;;;;;;;;;6182142;23;20499;-71
2023/09/04 13:34:50;;;;;;;3.00;1.80;;;;;;;;;;6182883;23;20120;-71
2023/09/04 13:37:16;;;;;;;5.45;1.63;;;;;;;;;;6183231;23;20088;-71
2023/09/04 13:39:43;;;;;;;2.85;1.63;;;;;;;;;;6182569;23;20084;-71
2023/09/04 13:42:09;;;;;;;3.35;1.70;;;;;;;;;;6183116;23;20119;-71
2023/09/04 13:44:35;;;;;;;2.20;1.65;;;;;;;;;;6183046;23;20072;-71
2023/09/04 13:47:03;;;;;;;2.30;1.67;;;;;;;;;;6182389;23;20079;-71
2023/09/04 13:49:30;;;;;;;3.53;1.65;;;;;;;;;;6181265;23;20064;-71
2023/09/04 13:51:56;;;;;;;1.63;1.52;;;;;;;;;;6182342;23;20402;-72
2023/09/04 13:54:22;;;;;;;2.72;1.55;;;;;;;;;;6181371;23;20072;-72
2023/09/04 13:56:51;;;;;;;2.85;1.70;;;;;;;;;;6182169;23;20072;-71
2023/09/04 13:59:18;;;;;;;1.40;1.30;;;;;;;;;;6155426;23;20125;-71
2023/09/04 14:01:46;;;;;;;4.28;1.67;;;;;;;;;;6183203;23;20077;-71
2023/09/04 14:04:13;;;;;;;4.27;1.80;;;;;;;;;;6182640;23;20084;-71
2023/09/04 14:06:39;;;;;;;5.60;1.83;;;;;;;;;;6155709;23;20320;-71
2023/09/04 14:09:06;;;;;;;2.00;1.70;;;;;;;;;;6155731;23;20072;-71
2023/09/04 14:11:32;;;;;;;2.13;1.85;;;;;;;;;;6181917;23;20071;-71
2023/09/04 14:13:58;;;;;;;3.17;1.95;;;;;;;;;;6181914;23;20084;-71
2023/09/04 14:16:25;;;;;;;4.85;1.80;;;;;;;;;;6182504;23;20072;-71
2023/09/04 14:18:52;;;;;;;1.70;1.60;;;;;;;;;;6184152;23;20386;-71
2023/09/04 14:21:19;;;;;;;2.85;1.88;;;;;;;;;;6183845;23;20084;-71
2023/09/04 14:23:48;;;;;;;3.47;2.00;;;;;;;;;;6183299;23;20525;-71
2023/09/04 14:26:15;;;;;;;4.53;1.73;;;;;;;;;;6184111;23;20072;-71
2023/09/04 14:28:41;;;;;;;2.33;1.88;;;;;;;;;;6183775;23;20084;-71
2023/09/04 14:31:14;;;;;;;2.05;1.85;;;;;;;;;;6183821;23;20076;-71
2023/09/04 14:33:40;;;;;;;2.92;1.98;;;;;;;;;;6183894;23;20099;-71
2023/09/04 14:36:06;;;;;;;2.85;1.85;;;;;;;;;;6184334;23;20072;-71
2023/09/04 14:38:37;;;;;;;2.72;1.73;;;;;;;;;;6157921;23;20080;-71
2023/09/04 14:41:17;;;;;;;3.20;1.88;;;;;;;;;;6183499;23;20487;-71
2023/09/04 14:43:43;;;;;;;;;;;;;;;;;;6184358;23;20507;-70
2023/09/04 14:46:10;;;;;;;4.07;1.80;;;;;;;;;;6184408;23;20015;-71
2023/09/04 14:48:36;;;;;;;2.15;1.90;;;;;;;;;;6184140;23;20424;-71
2023/09/04 14:51:03;;;;;;;3.05;1.98;;;;;;;;;;6182751;23;20084;-71
2023/09/04 14:53:29;;;;;;;3.10;1.75;;;;;;;;;;6183406;23;20405;-71
2023/09/04 14:55:59;;;;;;;3.08;1.92;;;;;;;;;;6183708;23;20519;-71
2023/09/04 14:58:26;;;;;;;10.40;1.80;;;;;;;;;;6184505;23;20111;-71
2023/09/04 15:00:52;;;;;;;6.18;2.10;;;;;;;;;;6157001;23;20440;-71
2023/09/04 15:03:19;;;;;;;2.60;1.90;;;;;;;;;;6184342;23;20076;-71
2023/09/04 15:05:46;;;;;;;3.95;1.90;;;;;;;;;;6184350;23;20076;-71
2023/09/04 15:08:13;;;;;;;5.65;2.20;;;;;;;;;;6184738;23;20072;-71
2023/09/04 15:10:39;;;;;;;3.92;2.22;;;;;;;;;;6185189;23;20072;-71
2023/09/04 15:13:06;;;;;;;5.15;2.20;;;;;;;;;;6184977;23;20094;-71
2023/09/04 15:15:32;;;;;;;4.30;2.05;;;;;;;;;;6185305;23;20072;-70
2023/09/04 15:17:59;;;;;;;2.33;1.85;;;;;;;;;;6185040;23;20096;-70
2023/09/04 15:20:25;;;;;;;3.08;1.80;;;;;;;;;;6185108;23;20373;-71
2023/09/04 15:22:52;;;;;;;3.55;2.08;;;;;;;;;;6184650;23;20096;-71
2023/09/04 15:25:18;;;;;;;8.15;2.13;;;;;;;;;;6185035;23;20072;-70
2023/09/04 15:27:44;;;;;;;2.92;1.80;;;;;;;;;;6184701;23;20071;-71
2023/09/04 15:30:11;;;;;;;2.85;1.52;;;;;;;;;;6184764;23;20104;-71
2023/09/04 15:32:39;;;;;;;4.60;2.00;;;;;;;;;;6184811;23;20478;-71
2023/09/04 15:35:05;;;;;;;4.13;1.90;;;;;;;;;;6184799;23;20072;-72
2023/09/04 15:37:31;;;;;;;2.90;1.80;;;;;;;;;;6184496;23;20072;-71
2023/09/04 15:39:59;;;;;;;3.70;1.98;;;;;;;;;;6184967;23;20394;-71
2023/09/04 15:42:25;;;;;;;3.35;1.90;;;;;;;;;;6182552;23;20080;-71
2023/09/04 15:44:51;;;;;;;2.67;1.73;;;;;;;;;;6185084;23;20068;-71
2023/09/04 15:47:18;;;;;;;4.88;1.88;;;;;;;;;;6184773;23;20495;-71
2023/09/04 15:49:44;;;;;;;7.07;2.00;;;;;;;;;;6184817;23;20064;-71
2023/09/04 15:52:10;;;;;;;3.97;2.05;;;;;;;;;;6184198;23;20410;-71
2023/09/04 15:54:37;;;;;;;9.30;2.60;;;;;;;;;;6158503;23;20080;-71
2023/09/04 15:57:03;;;;;;;2.45;1.60;;;;;;;;;;6184705;23;20084;-70
2023/09/04 15:59:32;;;;;;;2.67;1.65;;;;;;;;;;6184837;23;20388;-71
2023/09/04 16:01:59;;;;;;;2.73;1.73;;;;;;;;;;6184345;23;20091;-71
2023/09/04 16:04:26;;;;;;;6.32;1.50;;;;;;;;;;6184215;23;20072;-70
2023/09/04 16:06:52;;;;;;;6.45;1.77;;;;;;;;;;6185229;23;20080;-71
2023/09/04 16:09:19;;;;;;;1.90;1.60;;;;;;;;;;6185033;23;20068;-71
2023/09/04 16:11:45;;;;;;;2.90;1.80;;;;;;;;;;6184797;23;20080;-71
2023/09/04 16:14:11;;;;;;;2.67;1.98;;;;;;;;;;6158988;23;20067;-71
2023/09/04 16:16:38;;;;;;;3.75;1.70;;;;;;;;;;6158599;23;20079;-71
2023/09/04 16:19:04;;;;;;;3.35;1.77;;;;;;;;;;6184435;23;20096;-71
2023/09/04 16:21:30;;;;;;;3.33;1.55;;;;;;;;;;6158605;23;20080;-71
2023/09/04 16:23:58;;;;;;;7.00;2.20;;;;;;;;;;6184614;23;20083;-70
2023/09/04 16:26:26;;;;;;;3.67;1.70;;;;;;;;;;6158734;23;20123;-70
2023/09/04 16:28:52;;;;;;;9.13;2.08;;;;;;;;;;6158638;23;20085;-70
2023/09/04 16:31:18;;;;;;;2.25;1.80;;;;;;;;;;6184705;23;20072;-71
2023/09/04 16:33:45;;;;;;;1.95;1.80;;;;;;;;;;6184686;23;20080;-70
2023/09/04 16:36:11;;;;;;;3.25;2.20;;;;;;;;;;6184869;23;20080;-70
2023/09/04 16:38:37;;;;;;;4.22;2.08;;;;;;;;;;6184685;23;20076;-70
2023/09/04 16:41:04;;;;;;;3.45;1.75;;;;;;;;;;6158300;23;20079;-70
2023/09/04 16:43:30;;;;;;;3.78;2.08;;;;;;;;;;6185073;23;20068;-71
2023/09/04 16:45:56;;;;;;;3.33;1.90;;;;;;;;;;6184606;23;20091;-70
2023/09/04 16:48:24;;;;;;;5.30;2.25;;;;;;;;;;6184245;23;20072;-70
2023/09/04 16:50:55;;;;;;;2.97;2.10;;;;;;;;;;6184769;23;20076;-70
2023/09/04 16:53:21;;;;;;;2.58;1.80;;;;;;;;;;6184499;23;20084;-71
2023/09/04 16:55:48;;;;;;;2.05;1.60;;;;;;;;;;6184730;23;20076;-70
2023/09/04 16:58:14;;;;;;;2.65;1.90;;;;;;;;;;6158732;23;20085;-70
2023/09/04 17:00:40;;;;;;;2.65;1.83;;;;;;;;;;6184608;23;20111;-71
2023/09/04 17:03:07;;;;;;;3.15;2.10;;;;;;;;;;6184156;23;20068;-71
2023/09/04 17:05:35;;;;;;;3.85;2.10;;;;;;;;;;6184743;23;20072;-70
2023/09/04 17:08:01;;;;;;;3.50;1.95;;;;;;;;;;6184717;23;20048;-70
2023/09/04 17:10:28;;;;;;;5.00;1.90;;;;;;;;;;6184541;23;20523;-70
2023/09/04 17:12:54;;;;;;;5.78;2.08;;;;;;;;;;6184415;23;20084;-70
2023/09/04 17:15:21;;;;;;;7.13;2.33;;;;;;;;;;6184528;23;20515;-70
2023/09/04 17:17:47;;;;;;;3.70;2.05;;;;;;;;;;6184183;23;20079;-70
2023/09/04 17:20:13;;;;;;;3.58;2.03;;;;;;;;;;6158303;23;20068;-70
2023/09/04 17:22:40;;;;;;;5.00;2.30;;;;;;;;;;6184307;23;20084;-70
2023/09/04 17:25:06;;;;;;;5.50;1.92;;;;;;;;;;6184416;23;20500;-71
2023/09/04 17:27:33;;;;;;;6.63;2.60;;;;;;;;;;6184488;23;20128;-70
2023/09/04 17:30:01;;;;;;;5.55;2.20;;;;;;;;;;6184543;23;20076;-70
2023/09/04 17:32:27;;;;;;;3.40;2.45;;;;;;;;;;6183952;23;20496;-70
2023/09/04 17:34:54;;;;;;;6.88;2.60;;;;;;;;;;6184580;23;20088;-70
2023/09/04 17:37:20;;;;;;;3.10;2.33;;;;;;;;;;6184406;23;20073;-70
2023/09/04 17:39:47;;;;;;;3.55;2.38;;;;;;;;;;6184360;23;20076;-70
2023/09/04 17:42:15;;;;;;;3.75;2.65;;;;;;;;;;6184287;23;20527;-70
2023/09/04 17:44:41;;;;;;;4.35;2.50;;;;;;;;;;6184503;23;20385;-70
2023/09/04 17:47:07;;;;;;;5.38;2.72;;;;;;;;;;6183958;23;20070;-70
2023/09/04 17:49:36;;;;;;;3.40;2.00;;;;;;;;;;6184415;23;20133;-70
2023/09/04 17:52:05;;;;;;;3.17;1.98;;;;;;;;;;6184820;23;20080;-70
2023/09/04 17:54:32;;;;;;;6.32;2.28;;;;;;;;;;6186381;23;20080;-69
2023/09/04 17:56:58;;;;;;;3.38;2.03;;;;;;;;;;6186658;23;20127;-68
2023/09/04 17:59:24;;;;;;;2.65;1.83;;;;;;;;;;6186124;23;20147;-71
2023/09/04 18:01:51;;;;;;;4.60;1.80;;;;;;;;;;6159431;23;20081;-69
2023/09/04 18:04:18;;;;;;;5.03;2.00;;;;;;;;;;6186255;23;20083;-69
2023/09/04 18:06:47;;;;;;;3.72;1.90;;;;;;;;;;6186260;23;20115;-69
2023/09/04 18:09:13;;;;;;;2.17;1.80;;;;;;;;;;6159954;23;20512;-70
2023/09/04 18:11:40;;;;;;;3.28;1.90;;;;;;;;;;6186016;23;20068;-70
2023/09/04 18:14:06;;;;;;;6.30;1.90;;;;;;;;;;6186265;23;20139;-70
2023/09/04 18:16:32;;;;;;;2.38;1.90;;;;;;;;;;6185652;23;20061;-70
2023/09/04 18:18:59;;;;;;;3.65;1.90;;;;;;;;;;6159872;23;20084;-70
2023/09/04 18:21:25;;;;;;;2.45;1.90;;;;;;;;;;6186035;23;20387;-69
2023/09/04 18:23:51;;;;;;;2.03;1.80;;;;;;;;;;6185893;23;20099;-70
2023/09/04 18:26:19;;;;;;;4.95;2.10;;;;;;;;;;6186169;23;20548;-70
2023/09/04 18:28:45;;;;;;;3.85;2.00;;;;;;;;;;6159755;23;20088;-69
2023/09/04 18:31:19;;;;;;;4.32;1.77;;;;;;;;;;6185501;23;20064;-70
2023/09/04 18:33:45;;;;;;;2.28;1.80;;;;;;;;;;6186015;23;20401;-68
2023/09/04 18:36:12;;;;;;;2.35;1.98;;;;;;;;;;6186031;23;20133;-70
2023/09/04 18:38:39;;;;;;;2.92;1.90;;;;;;;;;;6186086;23;20064;-70
2023/09/04 18:41:07;;;;;;;2.78;1.90;;;;;;;;;;6185778;23;20077;-70
2023/09/04 18:43:34;;;;;;;3.30;2.10;;;;;;;;;;6186011;23;20077;-70
2023/09/04 18:46:01;;;;;;;3.47;1.58;;;;;;;;;;6185572;23;20077;-70
2023/09/04 18:48:27;;;;;;;6.03;1.88;;;;;;;;;;6185667;23;20104;-70
2023/09/04 18:50:54;;;;;;;2.58;1.92;;;;;;;;;;6185902;23;20172;-70
2023/09/04 18:53:21;;;;;;;3.63;2.03;;;;;;;;;;6185695;23;20535;-70
2023/09/04 18:55:47;;;;;;;4.05;1.90;;;;;;;;;;6186037;23;20077;-69
2023/09/04 18:58:13;;;;;;;3.63;2.13;;;;;;;;;;6185874;23;20132;-69
2023/09/04 19:00:40;;;;;;;5.45;2.08;;;;;;;;;;6185353;23;20069;-69
2023/09/04 19:03:06;;;;;;;5.95;1.55;;;;;;;;;;6185595;23;20072;-70
2023/09/04 19:05:32;;;;;;;3.45;2.00;;;;;;;;;;6185997;23;20084;-69
2023/09/04 19:07:58;;;;;;;2.40;1.77;;;;;;;;;;6185774;23;20499;-70
2023/09/04 19:10:25;;;;;;;2.53;1.90;;;;;;;;;;6185637;23;20390;-70
2023/09/04 19:12:51;;;;;;;2.80;2.08;;;;;;;;;;6159186;23;20092;-69
2023/09/04 19:15:17;;;;;;;2.80;2.08;;;;;;;;;;6185615;23;20072;-69
2023/09/04 19:17:45;;;;;;;2.50;2.03;;;;;;;;;;6185541;23;20073;-70
2023/09/04 19:20:12;;;;;;;3.05;2.00;;;;;;;;;;6185682;23;20072;-69
2023/09/04 19:22:41;;;;;;;4.88;2.10;;;;;;;;;;6185374;23;20080;-69
2023/09/04 19:25:11;;;;;;;2.60;1.90;;;;;;;;;;6185461;23;20084;-70
2023/09/04 19:27:37;;;;;;;3.25;1.92;;;;;;;;;;6185167;23;20495;-70
2023/09/04 19:30:04;;;;;;;5.72;2.17;;;;;;;;;;6185542;23;20064;-70
2023/09/04 19:32:30;;;;;;;3.05;1.95;;;;;;;;;;6185369;23;20088;-69
2023/09/04 19:34:57;;;;;;;4.43;1.85;;;;;;;;;;6185501;23;20383;-69
2023/09/04 19:37:23;;;;;;;3.70;1.90;;;;;;;;;;6185356;23;20079;-70
2023/09/04 19:39:50;;;;;;;5.45;1.90;;;;;;;;;;6185306;23;20076;-70
2023/09/04 19:42:16;;;;;;;4.82;2.00;;;;;;;;;;6184909;23;20494;-70
2023/09/04 19:44:43;;;;;;;4.97;2.00;;;;;;;;;;6185430;23;20539;-70
2023/09/04 19:47:09;;;;;;;6.57;2.10;;;;;;;;;;6185326;23;20064;-70
2023/09/04 19:49:35;;;;;;;2.65;1.65;;;;;;;;;;6158939;23;20076;-70
2023/09/04 19:52:02;;;;;;;5.30;2.17;;;;;;;;;;6185175;23;20090;-70
2023/09/04 19:54:28;;;;;;;2.60;2.17;;;;;;;;;;6185234;23;20071;-70
2023/09/04 19:56:54;;;;;;;4.10;2.30;;;;;;;;;;6184943;23;20075;-70
2023/09/04 19:59:21;;;;;;;2.20;1.80;;;;;;;;;;6158933;23;20080;-70
2023/09/04 20:01:47;;;;;;;2.25;1.77;;;;;;;;;;6185241;23;20080;-70
2023/09/04 20:04:13;;;;;;;3.55;2.10;;;;;;;;;;6185240;23;20380;-70
2023/09/04 20:06:39;;;;;;;4.45;2.15;;;;;;;;;;6185530;23;20127;-70
2023/09/04 20:09:08;;;;;;;3.80;2.10;;;;;;;;;;6185047;23;20079;-69
2023/09/04 20:11:35;;;;;;;3.80;2.20;;;;;;;;;;6184519;23;20112;-70
2023/09/04 20:14:04;;;;;;;4.38;2.15;;;;;;;;;;6184888;23;20076;-69
2023/09/04 20:16:31;;;;;;;3.42;1.88;;;;;;;;;;6185045;23;20080;-70
2023/09/04 20:18:58;;;;;;;1.95;1.70;;;;;;;;;;6185125;23;20092;-70
2023/09/04 20:21:24;;;;;;;2.50;1.77;;;;;;;;;;6184989;23;20088;-70
2023/09/04 20:23:58;;;;;;;2.25;1.80;;;;;;;;;;6184846;23;20084;-69
2023/09/04 20:26:25;;;;;;;3.45;2.10;;;;;;;;;;6184352;23;20076;-69
2023/09/04 20:28:53;;;;;;;4.22;2.03;;;;;;;;;;6185004;23;20084;-69
2023/09/04 20:31:20;;;;;;;3.17;1.65;;;;;;;;;;6185095;23;20096;-69
2023/09/04 20:33:47;;;;;;;3.63;1.90;;;;;;;;;;6184826;23;20389;-69
2023/09/04 20:36:13;;;;;;;4.38;2.10;;;;;;;;;;6158610;23;20077;-69
2023/09/04 20:38:40;;;;;;;5.57;2.00;;;;;;;;;;6184846;23;20531;-70
2023/09/04 20:41:06;;;;;;;4.38;2.05;;;;;;;;;;6184372;23;20368;-69
2023/09/04 20:43:32;;;;;;;2.75;2.08;;;;;;;;;;6184850;23;20076;-69
2023/09/04 20:45:58;;;;;;;5.07;1.92;;;;;;;;;;6184794;23;20088;-70
2023/09/04 20:48:25;;;;;;;3.13;1.92;;;;;;;;;;6184676;23;20076;-69
2023/09/04 20:50:51;;;;;;;2.88;1.70;;;;;;;;;;6184682;23;20080;-69
2023/09/04 20:53:18;;;;;;;2.85;2.25;;;;;;;;;;6184595;23;20013;-69
2023/09/04 20:55:44;;;;;;;3.35;1.85;;;;;;;;;;6184288;23;20076;-70
2023/09/04 20:58:10;;;;;;;2.97;2.00;;;;;;;;;;6184818;23;20076;-69
2023/09/04 21:00:36;;;;;;;2.60;2.08;;;;;;;;;;6158217;23;20075;-70
2023/09/04 21:03:03;;;;;;;2.80;2.15;;;;;;;;;;6184529;23;20064;-69
2023/09/04 21:05:29;;;;;;;4.22;2.17;;;;;;;;;;6184549;23;20092;-69